Time;durP1;ratioP1;P1;durP2;ratioP2;P2;SDS_P1;SDS_P2;PMS_P1;PMS_P2;Temp;Humidity;BMP_temperature;BMP_pressure;BME280_temperature;BME280_humidity;BME280_pressure;Samples;Min_cycle;Max_cycle;Signal;HPM_P1;HPM_P2
2021/03/17 00:00:41;;;;;;;27.63;23.00;;;5.00;99.90;;;;;;5104732;27;20865;-80
2021/03/17 00:03:08;;;;;;;25.87;23.27;;;5.00;99.90;;;;;;5105438;27;20945;-79
2021/03/17 00:05:37;;;;;;;27.13;24.37;;;5.00;99.90;;;;;;5105718;27;20456;-76
2021/03/17 00:08:05;;;;;;;25.70;23.40;;;5.00;99.90;;;;;;5104692;27;20495;-78
2021/03/17 00:10:33;;;;;;;27.60;25.10;;;4.90;99.90;;;;;;5104365;27;20460;-77
2021/03/17 00:13:00;;;;;;;27.63;24.83;;;5.00;99.90;;;;;;5105066;27;20982;-76
2021/03/17 00:15:28;;;;;;;26.57;24.13;;;5.10;99.90;;;;;;5104657;27;20560;-79
2021/03/17 00:17:56;;;;;;;27.50;24.90;;;5.00;99.90;;;;;;5107095;27;20547;-77
2021/03/17 00:20:25;;;;;;;26.50;23.77;;;5.10;99.90;;;;;;5104395;27;20492;-76
2021/03/17 00:22:52;;;;;;;25.60;23.00;;;5.00;99.90;;;;;;5102847;27;20534;-78
2021/03/17 00:25:20;;;;;;;26.10;23.83;;;5.00;99.90;;;;;;5104534;27;20891;-80
2021/03/17 00:27:46;;;;;;;26.73;24.33;;;5.00;99.90;;;;;;5105351;27;20469;-75
2021/03/17 00:30:14;;;;;;;27.60;24.80;;;5.00;99.90;;;;;;5105516;27;20530;-77
2021/03/17 00:32:41;;;;;;;28.87;26.27;;;5.00;99.90;;;;;;5102126;27;20498;-75
2021/03/17 00:35:10;;;;;;;28.20;25.40;;;5.00;99.90;;;;;;5105872;27;20513;-75
2021/03/17 00:37:36;;;;;;;28.10;25.53;;;5.00;99.90;;;;;;5101716;27;20467;-76
2021/03/17 00:40:05;;;;;;;26.23;23.53;;;5.00;99.90;;;;;;5104690;27;20542;-77
2021/03/17 00:42:31;;;;;;;27.47;24.73;;;4.90;99.90;;;;;;5103793;27;20485;-78
2021/03/17 00:44:58;;;;;;;26.80;24.33;;;4.90;99.90;;;;;;5105787;27;20551;-77
2021/03/17 00:47:24;;;;;;;27.13;24.23;;;4.90;99.90;;;;;;5104190;27;20465;-78
2021/03/17 00:49:51;;;;;;;26.53;24.30;;;5.00;99.90;;;;;;5102339;27;20494;-77
2021/03/17 00:52:18;;;;;;;27.27;24.57;;;5.00;99.90;;;;;;5104371;27;20458;-75
2021/03/17 00:54:45;;;;;;;28.80;26.20;;;4.90;99.90;;;;;;5103965;27;20471;-79
2021/03/17 00:57:11;;;;;;;29.57;26.57;;;5.00;99.90;;;;;;5105042;27;20555;-76
2021/03/17 00:59:37;;;;;;;27.57;25.00;;;5.00;99.90;;;;;;5104632;27;20481;-77
2021/03/17 01:02:04;;;;;;;28.93;26.30;;;4.90;99.90;;;;;;5104684;27;20992;-79
2021/03/17 01:04:30;;;;;;;28.50;25.80;;;4.90;99.90;;;;;;5103380;27;20452;-78
2021/03/17 01:06:57;;;;;;;27.13;24.67;;;4.90;99.90;;;;;;5103249;27;21284;-77
2021/03/17 01:09:24;;;;;;;30.40;27.47;;;4.90;99.90;;;;;;5104581;27;20472;-78
2021/03/17 01:11:50;;;;;;;30.83;27.90;;;4.90;99.90;;;;;;5104103;27;20471;-78
2021/03/17 01:14:17;;;;;;;30.97;27.77;;;5.00;99.90;;;;;;5106744;27;20491;-76
2021/03/17 01:16:43;;;;;;;30.30;27.10;;;4.90;99.90;;;;;;5102864;27;20489;-77
2021/03/17 01:19:11;;;;;;;27.20;24.80;;;4.90;99.90;;;;;;5103668;27;21110;-75
2021/03/17 01:21:37;;;;;;;23.57;21.70;;;4.90;99.90;;;;;;5102880;27;20469;-76
2021/03/17 01:24:04;;;;;;;26.27;23.83;;;4.80;99.90;;;;;;5103593;27;20478;-78
2021/03/17 01:26:31;;;;;;;24.30;22.30;;;4.80;99.90;;;;;;5102915;27;20543;-74
2021/03/17 01:28:57;;;;;;;26.40;23.90;;;4.80;99.90;;;;;;5104524;27;20473;-75
2021/03/17 01:31:24;;;;;;;26.90;23.73;;;4.80;99.90;;;;;;5103741;27;20818;-78
2021/03/17 01:33:51;;;;;;;23.57;21.57;;;4.80;99.90;;;;;;5102996;27;20465;-75
2021/03/17 01:36:17;;;;;;;27.80;22.60;;;4.70;99.90;;;;;;5102113;27;20738;-76
2021/03/17 01:38:43;;;;;;;24.03;21.93;;;4.70;99.90;;;;;;5102323;27;20456;-73
2021/03/17 01:41:10;;;;;;;23.60;21.70;;;4.70;99.90;;;;;;5102218;27;20492;-74
2021/03/17 01:43:37;;;;;;;19.80;18.10;;;4.70;99.90;;;;;;5103223;27;20468;-77
2021/03/17 01:46:04;;;;;;;21.40;19.60;;;4.70;99.90;;;;;;5100317;27;20460;-76
2021/03/17 01:48:31;;;;;;;21.87;20.20;;;4.60;99.90;;;;;;5103158;27;20540;-76
2021/03/17 01:50:58;;;;;;;23.43;21.37;;;4.60;99.90;;;;;;5101099;27;20848;-76
2021/03/17 01:53:27;;;;;;;25.23;22.80;;;4.50;99.90;;;;;;5103002;27;20456;-76
2021/03/17 01:55:54;;;;;;;24.60;22.53;;;4.60;99.90;;;;;;5103972;27;20462;-75
2021/03/17 01:58:21;;;;;;;23.40;21.60;;;4.50;99.90;;;;;;5103493;27;20569;-75
2021/03/17 02:00:48;;;;;;;24.90;22.50;;;4.50;99.90;;;;;;5101438;27;20481;-77
2021/03/17 02:03:16;;;;;;;22.73;20.90;;;4.50;99.90;;;;;;5103501;27;20468;-75
2021/03/17 02:05:45;;;;;;;25.57;23.03;;;4.50;99.90;;;;;;5101603;27;21036;-75
2021/03/17 02:08:14;;;;;;;26.23;23.73;;;4.50;99.90;;;;;;5102821;27;20488;-77
2021/03/17 02:10:40;;;;;;;27.13;24.97;;;4.60;99.90;;;;;;5105077;27;20467;-77
2021/03/17 02:13:32;;;;;;;26.47;24.03;;;4.60;99.90;;;;;;5103778;27;20458;-75
2021/03/17 02:16:07;;;;;;;25.07;22.90;;;4.50;99.90;;;;;;5101094;27;20468;-75
2021/03/17 02:18:42;;;;;;;24.20;22.17;;;4.60;99.90;;;;;;5103278;27;20564;-75
2021/03/17 02:21:16;;;;;;;22.93;20.93;;;4.60;99.90;;;;;;5100699;27;20486;-73
2021/03/17 02:23:53;;;;;;;21.87;19.77;;;4.60;99.90;;;;;;5100385;28;20507;-76
2021/03/17 02:27:16;;;;;;;22.43;20.63;;;4.50;99.90;;;;;;5101491;27;20538;-75
2021/03/17 02:30:27;;;;;;;24.40;22.40;;;4.50;99.90;;;;;;5100371;27;20461;-75
2021/03/17 02:33:36;;;;;;;22.73;21.03;;;4.40;99.90;;;;;;5101283;27;20477;-77
2021/03/17 02:36:07;;;;;;;24.13;22.00;;;4.50;99.90;;;;;;5100759;27;20912;-76
2021/03/17 02:38:36;;;;;;;22.97;21.13;;;4.50;99.90;;;;;;5102664;27;20462;-75
2021/03/17 02:41:05;;;;;;;24.33;22.37;;;4.50;99.90;;;;;;5101885;28;20491;-76
2021/03/17 02:43:34;;;;;;;19.67;18.37;;;4.50;99.90;;;;;;5101177;27;20479;-76
2021/03/17 02:46:04;;;;;;;21.07;19.47;;;4.50;99.90;;;;;;5101614;28;20983;-74
2021/03/17 02:48:32;;;;;;;21.07;19.43;;;4.40;99.90;;;;;;5102220;27;20469;-75
2021/03/17 02:51:04;;;;;;;22.43;20.73;;;4.40;99.90;;;;;;5101641;28;20502;-74
2021/03/17 02:53:34;;;;;;;23.27;21.10;;;4.30;99.90;;;;;;5102885;28;21107;-76
2021/03/17 02:56:05;;;;;;;19.37;17.97;;;4.40;99.90;;;;;;5102032;28;20547;-75
2021/03/17 02:58:33;;;;;;;24.33;21.83;;;4.30;99.90;;;;;;5106588;27;20464;-76
2021/03/17 03:01:02;;;;;;;20.73;19.23;;;4.30;99.90;;;;;;5106885;27;20473;-74
2021/03/17 03:03:32;;;;;;;22.97;21.03;;;4.20;99.90;;;;;;5107475;27;20464;-75
2021/03/17 03:05:59;;;;;;;22.37;20.57;;;4.30;99.90;;;;;;5106972;27;20473;-74
2021/03/17 03:08:26;;;;;;;21.80;19.97;;;4.30;99.90;;;;;;5104622;27;20478;-75
2021/03/17 03:10:54;;;;;;;19.90;18.60;;;4.30;99.90;;;;;;5106045;27;20462;-74
2021/03/17 03:13:24;;;;;;;22.33;20.63;;;4.20;99.90;;;;;;5105637;27;20467;-75
2021/03/17 03:15:54;;;;;;;19.97;18.57;;;4.30;99.90;;;;;;5105922;27;20559;-75
2021/03/17 03:18:23;;;;;;;21.57;20.00;;;4.20;99.90;;;;;;5105522;27;20919;-75
2021/03/17 03:20:52;;;;;;;24.07;22.23;;;4.20;99.90;;;;;;5107273;27;20489;-75
2021/03/17 03:23:19;;;;;;;20.77;19.13;;;4.20;99.90;;;;;;5104029;27;20464;-76
2021/03/17 03:25:48;;;;;;;21.70;20.20;;;4.20;99.90;;;;;;5104441;27;20521;-75
2021/03/17 03:28:17;;;;;;;22.13;20.43;;;4.20;99.90;;;;;;5105588;27;20476;-77
2021/03/17 03:30:45;;;;;;;21.43;19.87;;;4.10;99.90;;;;;;5108918;27;20529;-76
2021/03/17 03:33:13;;;;;;;22.57;20.87;;;4.20;99.90;;;;;;5105049;27;20500;-76
2021/03/17 03:35:40;;;;;;;21.10;19.67;;;4.20;99.90;;;;;;5104995;27;20537;-76
2021/03/17 03:38:07;;;;;;;23.47;21.77;;;4.20;99.90;;;;;;5104480;27;20496;-77
2021/03/17 03:40:34;;;;;;;23.07;21.37;;;4.10;99.90;;;;;;5105535;27;20483;-78
2021/03/17 03:43:01;;;;;;;22.70;20.90;;;4.10;99.90;;;;;;5107627;27;20825;-75
2021/03/17 03:45:29;;;;;;;22.57;20.77;;;4.10;99.90;;;;;;5106819;27;20467;-77
2021/03/17 03:47:56;;;;;;;21.43;20.03;;;4.10;99.90;;;;;;5106028;27;20479;-76
2021/03/17 03:50:24;;;;;;;22.63;20.93;;;4.00;99.90;;;;;;5107247;27;20467;-78
2021/03/17 03:53:02;;;;;;;22.63;20.83;;;4.00;99.90;;;;;;5104200;27;20475;-77
2021/03/17 03:55:34;;;;;;;21.13;19.57;;;4.00;99.90;;;;;;5104024;27;20471;-75
2021/03/17 03:58:04;;;;;;;23.60;21.80;;;4.00;99.90;;;;;;5105224;27;20526;-76
2021/03/17 04:00:36;;;;;;;24.47;22.33;;;4.10;99.90;;;;;;5105817;27;20497;-77
2021/03/17 04:03:04;;;;;;;22.60;20.90;;;4.00;99.90;;;;;;5103842;27;20549;-75
2021/03/17 04:05:35;;;;;;;21.50;19.90;;;4.00;99.90;;;;;;5104601;27;20560;-76
2021/03/17 04:08:06;;;;;;;21.53;19.87;;;4.00;99.90;;;;;;5105179;27;20504;-76
2021/03/17 04:10:35;;;;;;;21.57;19.93;;;4.00;99.90;;;;;;5105603;27;20463;-76
2021/03/17 04:13:06;;;;;;;22.53;20.73;;;4.00;99.90;;;;;;5103819;27;20490;-77
2021/03/17 04:15:36;;;;;;;19.10;17.80;;;4.00;99.90;;;;;;5103643;27;20505;-76
2021/03/17 04:18:08;;;;;;;21.20;19.47;;;4.00;99.90;;;;;;5104252;27;21124;-77
2021/03/17 04:20:37;;;;;;;20.90;19.37;;;4.00;99.90;;;;;;5106296;27;20490;-77
2021/03/17 04:23:07;;;;;;;22.37;20.47;;;4.00;99.90;;;;;;5105466;27;20461;-76
2021/03/17 04:25:35;;;;;;;21.03;19.53;;;4.00;99.90;;;;;;5105575;27;20460;-77
2021/03/17 04:28:03;;;;;;;18.20;17.10;;;3.90;99.90;;;;;;5104242;27;20465;-76
2021/03/17 04:30:30;;;;;;;18.20;16.90;;;4.00;99.90;;;;;;5105714;27;20467;-75
2021/03/17 04:32:58;;;;;;;17.53;16.50;;;3.90;99.90;;;;;;5104956;27;20472;-75
2021/03/17 04:35:26;;;;;;;17.60;16.50;;;3.80;99.90;;;;;;5103167;27;20884;-75
2021/03/17 04:37:54;;;;;;;17.43;16.33;;;3.80;99.90;;;;;;5105283;27;20464;-74
2021/03/17 04:40:21;;;;;;;17.50;16.50;;;3.80;99.90;;;;;;5104891;27;20503;-74
2021/03/17 04:42:48;;;;;;;18.10;16.80;;;3.80;99.90;;;;;;5102578;27;22304;-74
2021/03/17 04:45:17;;;;;;;18.00;16.83;;;3.80;99.90;;;;;;5102642;27;20832;-74
2021/03/17 04:47:45;;;;;;;20.10;18.80;;;3.80;99.90;;;;;;5104834;27;20458;-74
2021/03/17 04:50:18;;;;;;;20.70;18.80;;;3.80;99.90;;;;;;5105460;27;20462;-74
2021/03/17 04:52:45;;;;;;;17.13;16.13;;;3.80;99.90;;;;;;5104022;27;21090;-74
2021/03/17 04:55:14;;;;;;;16.97;16.00;;;3.80;99.90;;;;;;5104257;27;20532;-74
2021/03/17 04:57:42;;;;;;;19.77;18.33;;;3.80;99.90;;;;;;5102912;27;20452;-74
2021/03/17 05:00:10;;;;;;;19.43;18.00;;;3.80;99.90;;;;;;5103714;27;20488;-74
2021/03/17 05:02:39;;;;;;;18.57;17.37;;;3.80;99.90;;;;;;5103413;27;20544;-74
2021/03/17 05:05:09;;;;;;;17.73;16.63;;;3.80;99.90;;;;;;5106358;27;20499;-74
2021/03/17 05:07:38;;;;;;;19.77;18.30;;;3.80;99.90;;;;;;5104012;27;20488;-73
2021/03/17 05:10:06;;;;;;;20.67;19.00;;;3.90;99.90;;;;;;5102360;27;20463;-73
2021/03/17 05:12:32;;;;;;;20.40;18.77;;;3.90;99.90;;;;;;5103141;27;20604;-75
2021/03/17 05:15:00;;;;;;;20.87;19.50;;;3.90;99.90;;;;;;5103814;27;20468;-74
2021/03/17 05:17:28;;;;;;;20.27;18.77;;;3.90;99.90;;;;;;5103340;27;20495;-75
2021/03/17 05:19:55;;;;;;;20.67;19.17;;;3.90;99.90;;;;;;5104257;27;20501;-75
2021/03/17 05:22:22;;;;;;;21.80;20.03;;;3.90;99.90;;;;;;5103272;27;20551;-74
2021/03/17 05:24:49;;;;;;;21.83;20.20;;;3.80;99.90;;;;;;5103243;27;20854;-76
2021/03/17 05:27:19;;;;;;;22.43;20.63;;;3.90;99.90;;;;;;5100133;27;20543;-73
2021/03/17 05:29:48;;;;;;;21.70;20.00;;;4.00;99.90;;;;;;5104131;27;20461;-75
2021/03/17 05:32:15;;;;;;;21.60;19.73;;;4.00;99.90;;;;;;5103234;27;20467;-75
2021/03/17 05:34:54;;;;;;;21.37;19.77;;;3.90;99.90;;;;;;5101922;27;20549;-75
2021/03/17 05:37:21;;;;;;;20.47;18.97;;;4.00;99.90;;;;;;5102896;27;20469;-75
2021/03/17 05:39:47;;;;;;;20.83;19.20;;;3.90;99.90;;;;;;5101915;27;20705;-75
2021/03/17 05:42:15;;;;;;;20.70;19.07;;;3.90;99.90;;;;;;5103174;27;20464;-75
2021/03/17 05:44:42;;;;;;;20.20;18.87;;;3.90;99.90;;;;;;5103332;27;20457;-74
2021/03/17 05:47:10;;;;;;;21.07;19.60;;;3.90;99.90;;;;;;5103155;27;20550;-74
2021/03/17 05:49:47;;;;;;;19.70;18.30;;;3.80;99.90;;;;;;5104390;27;20470;-75
2021/03/17 05:52:15;;;;;;;20.17;18.80;;;3.90;99.90;;;;;;5102566;27;20555;-74
2021/03/17 05:54:42;;;;;;;22.20;20.50;;;4.00;99.90;;;;;;5101355;27;20471;-75
2021/03/17 05:57:10;;;;;;;21.47;19.87;;;4.00;99.90;;;;;;5103565;27;20462;-74
2021/03/17 05:59:38;;;;;;;23.07;21.27;;;4.00;99.90;;;;;;5103796;27;20462;-74
2021/03/17 06:02:06;;;;;;;24.20;22.00;;;4.00;99.90;;;;;;5102603;27;20472;-74
2021/03/17 06:04:33;;;;;;;25.17;22.77;;;4.00;99.90;;;;;;5102690;28;20461;-73
2021/03/17 06:07:01;;;;;;;23.37;21.50;;;4.00;99.90;;;;;;5102397;27;20561;-74
2021/03/17 06:09:28;;;;;;;23.13;21.17;;;4.00;99.90;;;;;;5100772;27;20926;-74
2021/03/17 06:11:56;;;;;;;24.63;22.40;;;4.10;99.90;;;;;;5100239;27;20456;-74
2021/03/17 06:14:24;;;;;;;23.80;21.80;;;4.10;99.90;;;;;;5100036;27;20972;-74
2021/03/17 06:16:59;;;;;;;27.20;24.70;;;4.10;99.90;;;;;;5100766;27;21381;-74
2021/03/17 06:19:28;;;;;;;25.17;23.07;;;4.20;99.90;;;;;;5101516;27;20524;-74
2021/03/17 06:21:55;;;;;;;25.30;23.10;;;4.30;99.90;;;;;;5101777;27;20496;-75
2021/03/17 06:24:22;;;;;;;26.47;24.07;;;4.20;99.90;;;;;;5100416;28;21112;-75
2021/03/17 06:26:48;;;;;;;28.20;25.70;;;4.20;99.90;;;;;;5100936;27;20454;-75
2021/03/17 06:29:15;;;;;;;26.50;24.20;;;4.30;99.90;;;;;;5101559;27;20468;-74
2021/03/17 06:31:43;;;;;;;26.53;24.13;;;4.20;99.90;;;;;;5102423;27;20461;-75
2021/03/17 06:34:10;;;;;;;26.70;24.33;;;4.30;99.90;;;;;;5101646;28;20464;-74
2021/03/17 06:36:49;;;;;;;27.57;25.13;;;4.30;99.90;;;;;;5102763;28;21026;-75
2021/03/17 06:39:15;;;;;;;25.33;23.03;;;4.30;99.90;;;;;;5102846;28;20456;-75
2021/03/17 06:41:44;;;;;;;25.93;23.50;;;4.20;99.90;;;;;;5102385;27;21034;-75
2021/03/17 06:44:11;;;;;;;27.13;24.60;;;4.30;99.90;;;;;;5102732;27;20503;-74
2021/03/17 06:46:37;;;;;;;30.00;26.60;;;4.30;99.90;;;;;;5103227;27;20467;-75
2021/03/17 06:49:04;;;;;;;27.97;25.57;;;4.30;99.90;;;;;;5102205;27;20461;-73
2021/03/17 06:51:32;;;;;;;23.53;21.60;;;4.30;99.90;;;;;;5102272;27;20829;-75
2021/03/17 06:54:01;;;;;;;28.10;25.63;;;4.30;99.90;;;;;;5100843;28;20496;-75
2021/03/17 06:56:29;;;;;;;28.60;25.80;;;4.30;99.90;;;;;;5101763;28;20464;-75
2021/03/17 06:58:57;;;;;;;25.63;23.50;;;4.40;99.90;;;;;;5102911;28;20457;-74
2021/03/17 07:01:35;;;;;;;26.23;23.87;;;4.40;99.90;;;;;;5097900;28;20481;-75
2021/03/17 07:04:04;;;;;;;26.53;23.73;;;4.50;99.90;;;;;;5099954;28;20460;-74
2021/03/17 07:06:34;;;;;;;26.20;23.70;;;4.50;99.90;;;;;;5102997;28;20483;-74
2021/03/17 07:09:15;;;;;;;26.47;24.13;;;4.50;99.90;;;;;;5101193;28;20514;-74
2021/03/17 07:11:43;;;;;;;27.03;24.43;;;4.50;99.90;;;;;;5099516;28;20989;-75
2021/03/17 07:14:09;;;;;;;26.33;24.10;;;4.70;99.90;;;;;;5103152;28;20465;-74
2021/03/17 07:16:38;;;;;;;27.00;24.67;;;4.70;99.90;;;;;;5101390;28;21040;-74
2021/03/17 07:19:06;;;;;;;24.57;22.37;;;4.70;99.90;;;;;;5103139;28;20554;-74
2021/03/17 07:21:35;;;;;;;22.03;20.30;;;4.80;99.90;;;;;;5100149;28;21027;-74
2021/03/17 07:24:03;;;;;;;24.93;22.70;;;4.80;99.90;;;;;;5102104;28;20461;-74
2021/03/17 07:26:31;;;;;;;27.90;25.27;;;4.80;99.90;;;;;;5104087;28;20691;-74
2021/03/17 07:29:13;;;;;;;26.40;24.20;;;4.80;99.90;;;;;;5101308;28;20980;-74
2021/03/17 07:31:43;;;;;;;24.57;22.67;;;5.00;99.90;;;;;;5105884;28;20500;-74
2021/03/17 07:34:18;;;;;;;21.40;19.50;;;5.00;99.90;;;;;;5109621;28;20611;-74
2021/03/17 07:36:47;;;;;;;25.10;23.10;;;5.10;99.90;;;;;;5103128;28;20461;-74
2021/03/17 07:39:16;;;;;;;22.13;20.53;;;4.90;99.90;;;;;;5104965;28;20539;-73
2021/03/17 07:41:44;;;;;;;20.97;19.47;;;4.80;99.90;;;;;;5109394;28;20488;-73
2021/03/17 07:44:13;;;;;;;21.43;19.63;;;4.70;99.90;;;;;;5121326;27;20547;-73
2021/03/17 07:46:41;;;;;;;22.90;20.83;;;4.70;99.90;;;;;;5108288;27;20904;-73
2021/03/17 07:49:09;;;;;;;19.90;18.60;;;4.90;99.90;;;;;;5115568;27;20468;-73
2021/03/17 07:51:41;;;;;;;19.03;17.93;;;4.90;99.90;;;;;;5114627;27;20463;-74
2021/03/17 07:54:09;;;;;;;22.70;20.57;;;4.90;99.90;;;;;;5105758;27;20564;-74
2021/03/17 07:56:39;;;;;;;19.00;17.70;;;4.90;99.90;;;;;;5109849;27;20467;-74
2021/03/17 07:59:06;;;;;;;16.30;15.30;;;4.90;99.90;;;;;;5110901;27;20539;-74
2021/03/17 08:01:34;;;;;;;18.40;17.37;;;4.80;99.90;;;;;;5113011;27;20538;-74
2021/03/17 08:04:01;;;;;;;20.07;18.77;;;4.80;99.90;;;;;;5113352;27;20461;-75
2021/03/17 08:06:28;;;;;;;16.97;16.07;;;5.00;99.90;;;;;;5109966;27;20844;-75
2021/03/17 08:08:58;;;;;;;18.30;17.20;;;4.90;99.90;;;;;;5107725;27;20529;-75
2021/03/17 08:11:27;;;;;;;16.40;15.50;;;4.90;99.90;;;;;;5108707;27;21054;-75
2021/03/17 08:13:55;;;;;;;18.73;17.63;;;4.90;99.90;;;;;;5107940;27;20464;-74
2021/03/17 08:16:24;;;;;;;17.30;16.17;;;4.80;99.90;;;;;;5105369;27;20457;-74
2021/03/17 08:18:51;;;;;;;18.10;17.00;;;5.00;99.90;;;;;;5108568;27;20611;-74
2021/03/17 08:21:45;;;;;;;18.43;17.07;;;5.00;99.90;;;;;;5109120;27;20488;-75
2021/03/17 08:24:42;;;;;;;18.50;17.40;;;5.10;99.90;;;;;;5111738;27;20463;-74
2021/03/17 08:27:21;;;;;;;20.73;19.00;;;5.00;99.90;;;;;;5114173;27;20449;-75
2021/03/17 08:29:50;;;;;;;18.93;17.83;;;5.00;99.90;;;;;;5109989;27;20460;-75
2021/03/17 08:32:18;;;;;;;19.80;18.30;;;5.10;99.90;;;;;;5106748;27;20465;-75
2021/03/17 08:34:56;;;;;;;20.30;18.97;;;5.10;99.90;;;;;;5110820;27;20465;-76
2021/03/17 08:37:47;;;;;;;19.57;18.27;;;5.10;99.90;;;;;;5113305;27;20453;-75
2021/03/17 08:40:47;;;;;;;19.77;18.47;;;5.20;99.90;;;;;;5102885;27;20465;-75
2021/03/17 08:43:46;;;;;;;19.03;17.87;;;5.20;99.90;;;;;;5118339;27;20954;-74
2021/03/17 08:46:15;;;;;;;20.70;19.20;;;5.30;99.90;;;;;;5107258;27;20462;-75
2021/03/17 08:49:02;;;;;;;19.60;18.50;;;5.40;99.90;;;;;;5110771;27;21025;-74
2021/03/17 08:52:05;;;;;;;18.90;17.80;;;5.30;99.90;;;;;;5118268;27;20478;-74
2021/03/17 08:54:57;;;;;;;20.63;19.30;;;5.10;99.90;;;;;;5098027;27;20883;-74
2021/03/17 08:57:23;;;;;;;19.10;17.90;;;5.10;99.90;;;;;;5102523;27;20449;-74
2021/03/17 08:59:52;;;;;;;18.40;17.30;;;5.10;99.90;;;;;;5115261;27;20463;-74
2021/03/17 09:02:22;;;;;;;18.60;17.50;;;5.00;99.90;;;;;;5115465;27;20484;-74
2021/03/17 09:04:49;;;;;;;19.33;17.83;;;5.10;99.90;;;;;;5116811;27;20471;-74
2021/03/17 09:07:17;;;;;;;19.30;18.00;;;5.20;99.90;;;;;;5111937;27;20578;-74
2021/03/17 09:09:48;;;;;;;18.20;17.10;;;5.40;99.90;;;;;;5108133;27;20470;-73
2021/03/17 09:12:16;;;;;;;18.53;17.53;;;5.70;99.90;;;;;;5110094;27;20472;-73
2021/03/17 09:14:43;;;;;;;18.53;17.40;;;5.80;99.90;;;;;;5106657;27;20465;-74
2021/03/17 09:17:29;;;;;;;17.43;16.50;;;5.90;99.90;;;;;;5105274;27;20577;-73
2021/03/17 09:20:03;;;;;;;17.93;16.90;;;5.90;99.90;;;;;;5103165;27;20456;-74
2021/03/17 09:22:36;;;;;;;18.30;17.30;;;6.10;99.90;;;;;;5106401;27;20814;-73
2021/03/17 09:25:13;;;;;;;18.97;17.70;;;6.00;99.90;;;;;;5101959;27;21046;-74
2021/03/17 09:27:51;;;;;;;18.57;17.40;;;6.00;99.90;;;;;;5107412;27;20472;-74
2021/03/17 09:30:21;;;;;;;20.60;18.90;;;6.20;99.90;;;;;;5109957;27;20965;-73
2021/03/17 09:32:49;;;;;;;19.50;17.90;;;6.10;99.90;;;;;;5114646;27;20460;-73
2021/03/17 09:35:17;;;;;;;19.20;17.60;;;5.80;99.90;;;;;;5118510;27;20464;-73
2021/03/17 09:37:45;;;;;;;18.77;17.57;;;5.80;99.90;;;;;;5106909;27;20456;-73
2021/03/17 09:40:16;;;;;;;18.53;17.43;;;5.90;99.90;;;;;;5109807;27;20548;-74
2021/03/17 09:42:43;;;;;;;18.70;17.60;;;6.10;99.90;;;;;;5114756;27;20460;-75
2021/03/17 09:45:10;;;;;;;17.23;16.13;;;6.40;99.90;;;;;;5110289;27;20461;-75
2021/03/17 09:47:37;;;;;;;18.90;17.60;;;6.50;99.90;;;;;;5108407;27;20526;-74
2021/03/17 09:50:15;;;;;;;18.30;17.00;;;6.70;99.90;;;;;;5107437;27;20534;-74
2021/03/17 09:52:44;;;;;;;19.07;17.87;;;7.00;99.90;;;;;;5106308;27;20464;-75
2021/03/17 09:55:29;;;;;;;19.30;18.20;;;6.70;99.90;;;;;;5105482;27;20609;-73
2021/03/17 09:58:05;;;;;;;17.97;16.97;;;6.60;99.90;;;;;;5103362;27;20569;-75
2021/03/17 10:00:33;;;;;;;18.23;17.23;;;6.70;99.90;;;;;;5103445;27;20838;-72
2021/03/17 10:03:01;;;;;;;18.53;17.50;;;6.60;99.90;;;;;;5107844;27;20878;-74
2021/03/17 10:05:29;;;;;;;19.00;17.90;;;6.70;99.90;;;;;;5106092;27;20967;-72
2021/03/17 10:07:56;;;;;;;18.20;17.00;;;7.00;99.90;;;;;;5092620;28;20486;-74
2021/03/17 10:10:23;;;;;;;19.57;18.43;;;7.40;99.90;;;;;;5086287;28;20462;-73
2021/03/17 10:12:50;;;;;;;18.50;17.50;;;7.50;99.90;;;;;;5088116;28;20483;-74
2021/03/17 10:15:19;;;;;;;19.17;18.13;;;7.50;99.90;;;;;;5087987;28;20937;-73
2021/03/17 10:17:46;;;;;;;19.17;17.97;;;7.40;99.90;;;;;;5093010;28;21148;-73
2021/03/17 10:20:15;;;;;;;19.60;18.40;;;7.60;99.90;;;;;;5088362;28;20451;-74
2021/03/17 10:22:44;;;;;;;19.10;18.00;;;7.30;99.90;;;;;;5093548;28;20522;-72
2021/03/17 10:25:13;;;;;;;19.47;18.33;;;7.10;99.90;;;;;;5091485;28;20471;-74
2021/03/17 10:27:41;;;;;;;18.70;17.70;;;7.00;99.90;;;;;;5082938;28;20848;-73
2021/03/17 10:30:11;;;;;;;19.87;18.60;;;7.00;99.90;;;;;;5085816;28;20466;-74
2021/03/17 10:32:39;;;;;;;19.53;18.20;;;7.00;99.90;;;;;;5086358;28;20969;-74
2021/03/17 10:35:09;;;;;;;18.60;17.60;;;7.00;99.90;;;;;;5089574;28;20454;-73
2021/03/17 10:37:36;;;;;;;17.93;17.00;;;7.10;99.90;;;;;;5092539;28;20549;-74
2021/03/17 10:40:11;;;;;;;18.70;17.60;;;7.20;99.90;;;;;;5095870;28;20544;-74
2021/03/17 10:42:44;;;;;;;18.37;17.27;;;7.10;99.90;;;;;;5088728;28;20467;-73
2021/03/17 10:45:12;;;;;;;20.60;19.03;;;7.20;99.90;;;;;;5100687;28;20557;-72
2021/03/17 10:47:40;;;;;;;17.80;16.80;;;7.80;99.90;;;;;;5093723;28;21036;-74
2021/03/17 10:50:09;;;;;;;17.40;16.50;;;8.80;99.90;;;;;;5096443;28;21013;-73
2021/03/17 10:52:38;;;;;;;17.60;16.70;;;9.40;99.90;;;;;;5097090;28;20468;-74
2021/03/17 10:55:11;;;;;;;18.20;16.90;;;9.80;99.90;;;;;;5091740;28;20548;-72
2021/03/17 10:57:37;;;;;;;17.03;16.23;;;10.50;99.90;;;;;;5093252;28;20471;-74
2021/03/17 11:00:20;;;;;;;15.87;15.07;;;9.80;99.90;;;;;;5093690;28;20905;-74
2021/03/17 11:02:46;;;;;;;15.50;14.40;;;9.00;99.90;;;;;;5091209;28;20486;-74
2021/03/17 11:05:18;;;;;;;15.80;14.87;;;8.50;99.90;;;;;;5084365;28;20457;-74
2021/03/17 11:08:00;;;;;;;15.80;15.00;;;8.40;99.90;;;;;;5098886;28;20546;-74
2021/03/17 11:10:32;;;;;;;15.23;14.53;;;8.50;99.90;;;;;;5114040;28;20452;-74
2021/03/17 11:12:59;;;;;;;16.17;15.10;;;8.50;99.90;;;;;;5118144;28;20466;-74
2021/03/17 11:15:28;;;;;;;16.83;15.70;;;8.40;99.90;;;;;;5109884;28;20458;-75
2021/03/17 11:17:55;;;;;;;15.23;14.53;;;8.50;99.90;;;;;;5098189;27;20525;-75
2021/03/17 11:20:23;;;;;;;15.57;14.50;;;8.20;99.90;;;;;;5110867;27;20838;-73
2021/03/17 11:22:49;;;;;;;16.50;15.43;;;7.80;99.90;;;;;;5115425;27;20522;-76
2021/03/17 11:25:15;;;;;;;14.90;14.20;;;7.80;99.90;;;;;;5118392;27;20466;-76
2021/03/17 11:27:43;;;;;;;15.37;14.57;;;8.00;99.90;;;;;;5111916;27;20490;-73
2021/03/17 11:30:11;;;;;;;15.37;14.13;;;8.20;99.90;;;;;;5120143;27;20570;-74
2021/03/17 11:32:37;;;;;;;14.77;14.00;;;8.10;99.90;;;;;;5113080;27;20518;-76
2021/03/17 11:35:04;;;;;;;14.37;13.57;;;7.80;99.90;;;;;;5112547;27;20465;-74
2021/03/17 11:37:31;;;;;;;14.30;13.50;;;7.90;99.90;;;;;;5112715;27;21024;-74
2021/03/17 11:39:57;;;;;;;16.00;14.90;;;8.80;99.90;;;;;;5116361;27;20513;-78
2021/03/17 11:42:24;;;;;;;16.33;15.43;;;9.40;99.90;;;;;;5119529;27;20494;-74
2021/03/17 11:44:51;;;;;;;15.50;14.80;;;9.70;99.90;;;;;;5118220;27;20819;-75
2021/03/17 11:47:18;;;;;;;15.80;15.10;;;9.20;99.90;;;;;;5119188;27;20463;-75
2021/03/17 11:49:44;;;;;;;16.40;15.60;;;8.50;99.90;;;;;;5114710;27;20458;-76
2021/03/17 11:52:11;;;;;;;16.00;15.20;;;8.00;99.90;;;;;;5110582;27;20448;-77
2021/03/17 11:54:38;;;;;;;15.80;14.77;;;7.70;99.90;;;;;;5113545;27;20558;-74
2021/03/17 11:57:05;;;;;;;17.07;16.20;;;7.50;99.90;;;;;;5113037;27;20456;-75
2021/03/17 11:59:31;;;;;;;15.30;14.50;;;7.60;99.90;;;;;;5110283;27;20567;-76
2021/03/17 12:01:59;;;;;;;14.50;13.70;;;7.50;99.90;;;;;;5109779;27;20494;-77
2021/03/17 12:04:25;;;;;;;16.10;15.10;;;8.30;99.90;;;;;;5109710;27;20537;-77
2021/03/17 12:06:51;;;;;;;16.40;15.30;;;9.50;99.90;;;;;;5115271;27;20480;-75
2021/03/17 12:09:18;;;;;;;16.60;15.63;;;9.70;99.90;;;;;;5119759;27;20469;-74
2021/03/17 12:11:44;;;;;;;16.90;16.03;;;9.10;99.90;;;;;;5123070;27;20459;-77
2021/03/17 12:14:11;;;;;;;16.37;15.47;;;8.40;99.90;;;;;;5114428;27;20457;-77
2021/03/17 12:16:38;;;;;;;16.53;15.63;;;8.30;99.90;;;;;;5110218;27;20475;-76
2021/03/17 12:19:06;;;;;;;17.47;16.00;;;7.80;99.90;;;;;;5101989;27;20466;-76
2021/03/17 12:21:32;;;;;;;16.77;15.80;;;7.00;99.90;;;;;;5100691;27;20484;-77
2021/03/17 12:23:59;;;;;;;16.63;15.70;;;6.40;99.90;;;;;;5108601;27;20449;-76
2021/03/17 12:26:25;;;;;;;15.40;14.70;;;6.00;99.90;;;;;;5104176;27;20468;-77
2021/03/17 12:28:52;;;;;;;15.30;14.50;;;5.90;99.90;;;;;;5106839;27;20457;-77
2021/03/17 12:31:19;;;;;;;15.40;14.40;;;5.90;99.90;;;;;;5110863;27;20460;-75
2021/03/17 12:33:46;;;;;;;14.93;14.13;;;6.30;99.90;;;;;;5109901;27;20496;-76
2021/03/17 12:36:14;;;;;;;14.70;14.00;;;6.60;99.90;;;;;;5112566;27;20469;-73
2021/03/17 12:38:41;;;;;;;16.63;15.60;;;7.60;99.90;;;;;;5106547;27;20461;-77
2021/03/17 12:41:07;;;;;;;16.53;15.33;;;8.40;99.90;;;;;;5116171;27;20491;-74
2021/03/17 12:43:34;;;;;;;17.43;16.40;;;8.50;99.90;;;;;;5104453;27;20455;-78
2021/03/17 12:46:00;;;;;;;16.57;15.70;;;9.30;99.90;;;;;;5112295;27;20970;-76
2021/03/17 12:48:26;;;;;;;17.80;16.53;;;10.00;99.90;;;;;;5110558;27;20470;-77